createdAt,value
2022-10-23T00:00:53.530Z,1012.76
2022-10-23T00:01:53.531Z,1012.80
2022-10-23T00:02:53.659Z,1012.75
2022-10-23T00:03:53.499Z,1012.75
2022-10-23T00:04:53.478Z,1012.79
2022-10-23T00:05:53.497Z,1012.79
2022-10-23T00:06:53.471Z,1012.81
2022-10-23T00:07:53.459Z,1012.80
2022-10-23T00:08:53.441Z,1012.74
2022-10-23T00:09:53.446Z,1012.76
2022-10-23T00:10:53.445Z,1012.76
2022-10-23T00:11:53.404Z,1012.76
2022-10-23T00:12:53.420Z,1012.76
2022-10-23T00:13:53.419Z,1012.79
2022-10-23T00:14:53.377Z,1012.88
2022-10-23T00:15:53.365Z,1012.76
2022-10-23T00:16:53.361Z,1012.73
2022-10-23T00:17:53.376Z,1012.77
2022-10-23T00:18:53.350Z,1012.80
2022-10-23T00:19:53.321Z,1012.81
2022-10-23T00:20:53.320Z,1012.84
2022-10-23T00:21:53.292Z,1012.89
2022-10-23T00:22:53.312Z,1012.82
2022-10-23T00:23:53.278Z,1012.81
2022-10-23T00:24:53.271Z,1012.84
2022-10-23T00:25:53.256Z,1012.86
2022-10-23T00:26:53.278Z,1012.89
2022-10-23T00:27:53.263Z,1012.90
2022-10-23T00:28:53.230Z,1012.90
2022-10-23T00:29:53.211Z,1012.94
2022-10-23T00:30:53.204Z,1012.89
2022-10-23T00:31:53.213Z,1012.99
2022-10-23T00:32:53.191Z,1013.04
2022-10-23T00:33:53.172Z,1013.05
2022-10-23T00:34:53.171Z,1013.00
2022-10-23T00:35:53.147Z,1012.99
2022-10-23T00:36:53.171Z,1013.08
2022-10-23T00:37:53.129Z,1013.09
2022-10-23T00:38:53.138Z,1013.17
2022-10-23T00:39:53.099Z,1013.04
2022-10-23T00:40:53.093Z,1013.03
2022-10-23T00:41:53.094Z,1012.97
2022-10-23T00:42:53.091Z,1013.02
2022-10-23T00:43:53.062Z,1013.07
2022-10-23T00:44:53.058Z,1013.04
2022-10-23T00:45:53.032Z,1013.04
2022-10-23T00:46:53.027Z,1013.00
2022-10-23T00:47:53.048Z,1013.07
2022-10-23T00:48:53.008Z,1012.98
2022-10-23T00:49:53.001Z,1013.02
2022-10-23T00:50:52.996Z,1013.03
2022-10-23T00:51:52.969Z,1013.01
2022-10-23T00:52:52.983Z,1013.02
2022-10-23T00:54:06.412Z,1013.04
2022-10-23T00:54:53.937Z,1013.02
2022-10-23T00:55:52.929Z,1013.04
2022-10-23T00:56:52.924Z,1013.10
2022-10-23T00:57:52.935Z,1013.04
2022-10-23T00:58:52.904Z,1013.11
2022-10-23T00:59:52.918Z,1013.08
2022-10-23T01:00:52.867Z,1013.11
2022-10-23T01:01:53.030Z,1013.07
2022-10-23T01:02:52.848Z,1013.08
2022-10-23T01:03:52.849Z,1013.10
2022-10-23T01:04:52.849Z,1013.06
2022-10-23T01:05:52.823Z,1013.06
2022-10-23T01:06:52.857Z,1013.09
2022-10-23T01:07:52.798Z,1013.11
2022-10-23T01:08:53.225Z,1013.12
2022-10-23T01:09:52.791Z,1013.13
2022-10-23T01:10:52.767Z,1013.10
2022-10-23T01:11:52.792Z,1013.12
2022-10-23T01:12:52.747Z,1013.13
2022-10-23T01:13:52.830Z,1013.10
2022-10-23T01:14:52.717Z,1013.11
2022-10-23T01:15:52.713Z,1013.06
2022-10-23T01:16:52.710Z,1013.07
2022-10-23T01:17:52.723Z,1013.00
2022-10-23T01:18:52.676Z,1013.06
2022-10-23T01:19:52.672Z,1013.03
2022-10-23T01:20:52.664Z,1013.03
2022-10-23T01:21:52.665Z,1013.05
2022-10-23T01:22:52.686Z,1013.02
2022-10-23T01:23:52.644Z,1013.06
2022-10-23T01:24:52.629Z,1012.98
2022-10-23T01:25:52.616Z,1012.98
2022-10-23T01:26:52.597Z,1012.99
2022-10-23T01:27:52.617Z,1013.00
2022-10-23T01:28:52.593Z,1013.02
2022-10-23T01:29:52.605Z,1012.99
2022-10-23T01:30:52.558Z,1013.04
2022-10-23T01:31:52.546Z,1013.10
2022-10-23T01:32:52.538Z,1013.11
2022-10-23T01:33:52.530Z,1013.08
2022-10-23T01:34:52.531Z,1013.08
2022-10-23T01:35:52.492Z,1013.14
2022-10-23T01:36:52.489Z,1013.02
2022-10-23T01:37:52.470Z,1013.06
2022-10-23T01:38:52.595Z,1013.13
2022-10-23T01:39:52.482Z,1013.01
2022-10-23T01:40:52.469Z,1013.02
2022-10-23T01:41:52.427Z,1013.11
2022-10-23T01:42:52.440Z,1013.07
2022-10-23T01:43:52.416Z,1013.07
2022-10-23T01:44:52.406Z,1013.09
2022-10-23T01:45:52.409Z,1013.09
2022-10-23T01:46:52.381Z,1013.11
2022-10-23T01:47:52.364Z,1013.04
2022-10-23T01:48:52.348Z,1013.09
2022-10-23T01:49:52.342Z,1013.12
2022-10-23T01:50:52.355Z,1013.12
2022-10-23T01:51:52.341Z,1013.07
2022-10-23T01:52:52.302Z,1013.13
2022-10-23T01:53:52.294Z,1013.07
2022-10-23T01:54:52.307Z,1013.08
2022-10-23T01:55:52.290Z,1013.16
2022-10-23T01:56:52.263Z,1013.13
2022-10-23T01:57:52.273Z,1013.21
2022-10-23T01:58:52.245Z,1013.11
2022-10-23T01:59:52.229Z,1013.21
2022-10-23T02:00:52.259Z,1013.14
2022-10-23T02:01:52.418Z,1013.14
2022-10-23T02:02:52.196Z,1013.12
2022-10-23T02:03:52.276Z,1013.07
2022-10-23T02:04:52.199Z,1013.10
2022-10-23T02:05:52.197Z,1013.11
2022-10-23T02:06:52.164Z,1013.11
2022-10-23T02:07:52.155Z,1013.04
2022-10-23T02:08:52.144Z,1013.09
2022-10-23T02:09:52.147Z,1013.02
2022-10-23T02:10:52.139Z,1013.00
2022-10-23T02:11:52.146Z,1013.06
2022-10-23T02:12:52.092Z,1013.01
2022-10-23T02:13:52.084Z,1012.97
2022-10-23T02:14:52.074Z,1013.04
2022-10-23T02:15:52.069Z,1013.00
2022-10-23T02:16:52.066Z,1012.97
2022-10-23T02:17:52.056Z,1013.02
2022-10-23T02:18:52.032Z,1013.00
2022-10-23T02:19:52.018Z,1012.98
2022-10-23T02:20:52.005Z,1012.98
2022-10-23T02:21:52.028Z,1013.02
2022-10-23T02:22:51.977Z,1012.99
2022-10-23T02:23:53.840Z,1013.03
2022-10-23T02:24:51.953Z,1013.06
2022-10-23T02:25:51.954Z,1013.09
2022-10-23T02:26:52.022Z,1013.02
2022-10-23T02:27:51.920Z,1013.02
2022-10-23T02:28:51.996Z,1012.93
2022-10-23T02:29:51.914Z,1013.02
2022-10-23T02:30:51.916Z,1012.98
2022-10-23T02:31:51.902Z,1012.91
2022-10-23T02:32:51.873Z,1013.01
2022-10-23T02:33:51.874Z,1013.03
2022-10-23T02:34:51.904Z,1012.97
2022-10-23T02:35:51.833Z,1012.99
2022-10-23T02:36:51.854Z,1012.99
2022-10-23T02:37:51.812Z,1012.97
2022-10-23T02:38:51.806Z,1012.96
2022-10-23T02:39:51.793Z,1012.93
2022-10-23T02:40:51.790Z,1012.95
2022-10-23T02:41:51.797Z,1012.94
2022-10-23T02:42:51.804Z,1012.95
2022-10-23T02:43:51.774Z,1012.94
2022-10-23T02:44:51.746Z,1012.95
2022-10-23T02:45:51.748Z,1012.92
2022-10-23T02:46:51.745Z,1012.90
2022-10-23T02:47:51.722Z,1012.88
2022-10-23T02:48:51.691Z,1012.94
2022-10-23T02:49:51.683Z,1012.92
2022-10-23T02:50:51.684Z,1012.95
2022-10-23T02:51:51.700Z,1012.92
2022-10-23T02:52:51.676Z,1012.93
2022-10-23T02:53:51.718Z,1012.95
2022-10-23T02:54:51.642Z,1012.98
2022-10-23T02:55:51.625Z,1013.00
2022-10-23T02:56:51.648Z,1013.02
2022-10-23T02:57:51.634Z,1013.00
2022-10-23T02:58:51.605Z,1013.05
2022-10-23T02:59:51.573Z,1013.03
2022-10-23T03:00:51.579Z,1013.03
2022-10-23T03:01:51.749Z,1013.06
2022-10-23T03:02:51.566Z,1013.06
2022-10-23T03:03:51.528Z,1013.05
2022-10-23T03:04:51.521Z,1013.02
2022-10-23T03:05:51.513Z,1012.93
2022-10-23T03:06:51.508Z,1012.99
2022-10-23T03:07:51.535Z,1012.99
2022-10-23T03:08:51.482Z,1012.94
2022-10-23T03:09:51.480Z,1012.98
2022-10-23T03:10:51.482Z,1012.94
2022-10-23T03:11:51.461Z,1012.97
2022-10-23T03:12:51.475Z,1012.95
2022-10-23T03:13:51.456Z,1012.99
2022-10-23T03:14:51.426Z,1012.95
2022-10-23T03:15:51.406Z,1012.96
2022-10-23T03:16:51.436Z,1012.93
2022-10-23T03:17:51.374Z,1012.92
2022-10-23T03:18:51.366Z,1012.90
2022-10-23T03:19:51.372Z,1012.95
2022-10-23T03:20:51.355Z,1012.96
2022-10-23T03:21:51.352Z,1012.96
2022-10-23T03:22:51.326Z,1013.02
2022-10-23T03:23:51.347Z,1013.00
2022-10-23T03:24:51.308Z,1012.92
2022-10-23T03:25:51.291Z,1013.00
2022-10-23T03:26:51.301Z,1012.97
2022-10-23T03:27:51.272Z,1012.91
2022-10-23T03:28:51.299Z,1012.91
2022-10-23T03:29:51.249Z,1012.95
2022-10-23T03:30:51.266Z,1012.94
2022-10-23T03:31:51.266Z,1012.92
2022-10-23T03:32:51.217Z,1012.96
2022-10-23T03:33:51.232Z,1012.96
2022-10-23T03:34:51.205Z,1012.95
2022-10-23T03:35:51.190Z,1012.97
2022-10-23T03:36:51.210Z,1013.00
2022-10-23T03:37:51.162Z,1013.05
2022-10-23T03:38:51.154Z,1012.97
2022-10-23T03:39:51.149Z,1013.01
2022-10-23T03:40:51.127Z,1012.98
2022-10-23T03:41:51.155Z,1012.96
2022-10-23T03:42:51.108Z,1013.01
2022-10-23T03:43:51.171Z,1012.94
2022-10-23T03:44:51.083Z,1013.02
2022-10-23T03:45:51.083Z,1013.04
2022-10-23T03:46:51.079Z,1013.01
2022-10-23T03:47:51.524Z,1013.05
2022-10-23T03:48:51.066Z,1013.04
2022-10-23T03:49:51.037Z,1013.04
2022-10-23T03:50:51.035Z,1013.00
2022-10-23T03:51:51.040Z,1012.97
2022-10-23T03:52:51.004Z,1013.00
2022-10-23T03:53:50.994Z,1013.03
2022-10-23T03:54:50.971Z,1012.92
2022-10-23T03:55:50.967Z,1012.94
2022-10-23T03:56:53.703Z,1012.97
2022-10-23T03:57:51.945Z,1012.99
2022-10-23T03:58:50.926Z,1013.01
2022-10-23T03:59:50.937Z,1013.02
2022-10-23T04:00:50.921Z,1013.04
2022-10-23T04:01:51.030Z,1013.05
2022-10-23T04:02:50.936Z,1013.05
2022-10-23T04:03:50.881Z,1013.06
2022-10-23T04:04:50.860Z,1013.07
2022-10-23T04:05:52.330Z,1013.04
2022-10-23T04:06:50.842Z,1013.04
2022-10-23T04:07:50.884Z,1013.12
2022-10-23T04:08:50.827Z,1013.12
2022-10-23T04:09:50.809Z,1013.12
2022-10-23T04:10:50.819Z,1013.08
2022-10-23T04:11:50.814Z,1013.10
2022-10-23T04:12:50.820Z,1013.14
2022-10-23T04:13:50.772Z,1013.13
2022-10-23T04:14:50.755Z,1013.15
2022-10-23T04:15:50.769Z,1013.14
2022-10-23T04:16:50.748Z,1013.09
2022-10-23T04:17:50.766Z,1013.07
2022-10-23T04:18:50.730Z,1013.09
2022-10-23T04:19:50.703Z,1013.07
2022-10-23T04:20:50.717Z,1013.05
2022-10-23T04:21:50.689Z,1013.08
2022-10-23T04:22:50.696Z,1013.04
2022-10-23T04:23:50.658Z,1013.07
2022-10-23T04:24:50.655Z,1013.09
2022-10-23T04:25:50.660Z,1013.05
2022-10-23T04:26:50.625Z,1013.09
2022-10-23T04:27:50.625Z,1013.13
2022-10-23T04:28:50.644Z,1013.10
2022-10-23T04:29:53.190Z,1013.15
2022-10-23T04:30:50.577Z,1013.07
2022-10-23T04:31:50.572Z,1013.11
2022-10-23T04:32:50.592Z,1013.11
2022-10-23T04:33:50.600Z,1013.07
2022-10-23T04:34:50.555Z,1013.09
2022-10-23T04:35:50.546Z,1013.07
2022-10-23T04:36:50.519Z,1013.07
2022-10-23T04:37:50.545Z,1013.08
2022-10-23T04:38:50.494Z,1013.06
2022-10-23T04:39:50.482Z,1013.03
2022-10-23T04:40:50.475Z,1013.05
2022-10-23T04:41:50.478Z,1013.11
2022-10-23T04:42:50.451Z,1012.99
2022-10-23T04:43:50.472Z,1013.05
2022-10-23T04:44:50.438Z,1012.98
2022-10-23T04:45:50.486Z,1012.94
2022-10-23T04:46:50.419Z,1013.05
2022-10-23T04:47:50.399Z,1013.02
2022-10-23T04:48:50.397Z,1012.99
2022-10-23T04:49:50.374Z,1013.07
2022-10-23T04:50:50.418Z,1013.01
2022-10-23T04:51:50.355Z,1013.04
2022-10-23T04:52:50.349Z,1013.04
2022-10-23T04:53:50.340Z,1012.97
2022-10-23T04:54:50.360Z,1013.01
2022-10-23T04:55:50.382Z,1013.04
2022-10-23T04:56:50.312Z,1013.01
2022-10-23T04:57:50.302Z,1013.06
2022-10-23T04:58:50.287Z,1013.00
2022-10-23T04:59:50.276Z,1013.04
2022-10-23T05:00:50.356Z,1013.02
2022-10-23T05:01:50.286Z,1013.07
2022-10-23T05:02:50.237Z,1013.06
2022-10-23T05:03:50.233Z,1013.09
2022-10-23T05:04:50.218Z,1013.11
2022-10-23T05:05:50.244Z,1013.08
2022-10-23T05:06:50.284Z,1013.11
2022-10-23T05:07:50.189Z,1013.12
2022-10-23T05:08:50.171Z,1013.02
2022-10-23T05:09:50.173Z,1013.10
2022-10-23T05:10:50.154Z,1013.05
2022-10-23T05:11:50.162Z,1013.09
2022-10-23T05:12:50.164Z,1013.09
2022-10-23T05:13:50.116Z,1013.00
2022-10-23T05:14:50.111Z,1013.02
2022-10-23T05:15:50.106Z,1013.05
2022-10-23T05:16:50.118Z,1013.03
2022-10-23T05:17:50.110Z,1013.00
2022-10-23T05:18:50.069Z,1013.00
2022-10-23T05:19:50.075Z,1012.99
2022-10-23T05:20:50.066Z,1013.02
2022-10-23T05:21:50.046Z,1012.96
2022-10-23T05:22:50.070Z,1012.99
2022-10-23T05:23:50.095Z,1013.00
2022-10-23T05:24:50.688Z,1012.95
2022-10-23T05:25:49.987Z,1012.99
2022-10-23T05:26:49.973Z,1013.04
2022-10-23T05:27:50.002Z,1012.96
2022-10-23T05:28:49.963Z,1013.02
2022-10-23T05:29:49.945Z,1012.99
2022-10-23T05:30:49.941Z,1013.03
2022-10-23T05:31:49.917Z,1012.98
2022-10-23T05:32:49.956Z,1013.00
2022-10-23T05:33:49.899Z,1013.00
2022-10-23T05:34:49.890Z,1013.05
2022-10-23T05:35:49.883Z,1013.08
2022-10-23T05:36:49.870Z,1013.03
2022-10-23T05:37:49.882Z,1013.02
2022-10-23T05:38:49.868Z,1013.04
2022-10-23T05:39:49.859Z,1013.00
2022-10-23T05:40:49.858Z,1013.05
2022-10-23T05:41:49.811Z,1013.06
2022-10-23T05:42:49.801Z,1013.11
2022-10-23T05:43:49.785Z,1013.11
2022-10-23T05:44:49.804Z,1013.10
2022-10-23T05:45:49.792Z,1013.14
2022-10-23T05:46:49.760Z,1013.11
2022-10-23T05:47:49.752Z,1013.13
2022-10-23T05:48:49.770Z,1013.11
2022-10-23T05:49:49.827Z,1013.06
2022-10-23T05:50:49.724Z,1013.07
2022-10-23T05:51:49.721Z,1013.09
2022-10-23T05:52:49.710Z,1013.03
2022-10-23T05:53:49.682Z,1013.08
2022-10-23T05:54:49.698Z,1013.15
2022-10-23T05:55:49.697Z,1013.16
2022-10-23T05:56:49.643Z,1013.13
2022-10-23T05:57:49.652Z,1013.16
2022-10-23T05:58:49.623Z,1013.09
2022-10-23T05:59:49.613Z,1013.12
2022-10-23T06:00:49.650Z,1013.15
2022-10-23T06:01:49.745Z,1013.11
2022-10-23T06:02:49.590Z,1013.13
2022-10-23T06:03:49.576Z,1013.18
2022-10-23T06:04:49.562Z,1013.15
2022-10-23T06:05:49.613Z,1013.17
2022-10-23T06:06:49.534Z,1013.13
2022-10-23T06:07:49.529Z,1013.17
2022-10-23T06:08:49.558Z,1013.16
2022-10-23T06:09:49.514Z,1013.16
2022-10-23T06:10:49.511Z,1013.17
2022-10-23T06:11:49.503Z,1013.11
2022-10-23T06:12:49.474Z,1013.09
2022-10-23T06:13:49.508Z,1013.06
2022-10-23T06:14:49.485Z,1013.10
2022-10-23T06:15:49.476Z,1013.14
2022-10-23T06:16:49.423Z,1013.09
2022-10-23T06:17:49.419Z,1013.11
2022-10-23T06:18:49.402Z,1013.24
2022-10-23T06:19:49.425Z,1013.17
2022-10-23T06:20:49.415Z,1013.12
2022-10-23T06:21:49.384Z,1013.14
2022-10-23T06:22:49.359Z,1013.09
2022-10-23T06:23:49.346Z,1013.05
2022-10-23T06:24:49.345Z,1013.10
2022-10-23T06:25:49.360Z,1013.05
2022-10-23T06:26:49.338Z,1013.03
2022-10-23T06:27:49.318Z,1013.15
2022-10-23T06:28:49.322Z,1013.12
2022-10-23T06:29:49.300Z,1013.08
2022-10-23T06:30:49.300Z,1013.11
2022-10-23T06:31:49.287Z,1013.11
2022-10-23T06:32:49.256Z,1013.13
2022-10-23T06:33:49.254Z,1013.10
2022-10-23T06:34:49.259Z,1013.13
2022-10-23T06:35:49.260Z,1013.08
2022-10-23T06:36:49.212Z,1013.14
2022-10-23T06:37:49.210Z,1013.02
2022-10-23T06:38:49.224Z,1013.06
2022-10-23T06:39:49.181Z,1013.10
2022-10-23T06:40:49.248Z,1013.05
2022-10-23T06:41:49.153Z,1013.03
2022-10-23T06:42:49.178Z,1012.97
2022-10-23T06:43:49.154Z,1012.97
2022-10-23T06:44:49.133Z,1013.03
2022-10-23T06:45:49.130Z,1013.00
2022-10-23T06:46:49.108Z,1013.02
2022-10-23T06:47:49.083Z,1013.06
2022-10-23T06:48:49.078Z,1013.06
2022-10-23T06:49:49.062Z,1013.15
2022-10-23T06:50:49.079Z,1013.14
2022-10-23T06:51:49.048Z,1013.17
2022-10-23T06:52:49.054Z,1013.19
2022-10-23T06:53:49.053Z,1013.17
2022-10-23T06:54:49.021Z,1013.16
2022-10-23T06:55:51.444Z,1013.13
2022-10-23T06:56:50.005Z,1013.17
2022-10-23T06:57:48.975Z,1013.15
2022-10-23T06:58:48.990Z,1013.24
2022-10-23T06:59:48.982Z,1013.20
2022-10-23T07:00:49.062Z,1013.25
2022-10-23T07:01:49.127Z,1013.22
2022-10-23T07:02:48.921Z,1013.24
2022-10-23T07:03:48.911Z,1013.29
2022-10-23T07:04:48.900Z,1013.26
2022-10-23T07:05:48.919Z,1013.31
2022-10-23T07:06:48.901Z,1013.23
2022-10-23T07:07:48.890Z,1013.24
2022-10-23T07:08:48.852Z,1013.24
2022-10-23T07:09:48.859Z,1013.24
2022-10-23T07:10:48.840Z,1013.25
2022-10-23T07:11:48.860Z,1013.29
2022-10-23T07:12:48.855Z,1013.25
2022-10-23T07:13:48.803Z,1013.26
2022-10-23T07:14:48.812Z,1013.22
2022-10-23T07:15:48.775Z,1013.23
2022-10-23T07:16:48.790Z,1013.19
2022-10-23T07:17:48.772Z,1013.21
2022-10-23T07:18:48.806Z,1013.19
2022-10-23T07:19:48.738Z,1013.22
2022-10-23T07:20:48.735Z,1013.23
2022-10-23T07:21:48.718Z,1013.24
2022-10-23T07:22:48.703Z,1013.27
2022-10-23T07:23:48.715Z,1013.24
2022-10-23T07:24:48.708Z,1013.27
2022-10-23T07:25:48.696Z,1013.28
2022-10-23T07:26:48.661Z,1013.26
2022-10-23T07:27:48.695Z,1013.29
2022-10-23T07:28:48.671Z,1013.28
2022-10-23T07:29:48.626Z,1013.26
2022-10-23T07:30:48.634Z,1013.35
2022-10-23T07:31:48.649Z,1013.29
2022-10-23T07:32:48.647Z,1013.28
2022-10-23T07:33:48.588Z,1013.31
2022-10-23T07:34:48.592Z,1013.34
2022-10-23T07:35:48.565Z,1013.32
2022-10-23T07:36:48.549Z,1013.29
2022-10-23T07:37:48.566Z,1013.27
2022-10-23T07:38:48.605Z,1013.30
2022-10-23T07:39:48.514Z,1013.26
2022-10-23T07:40:48.512Z,1013.20
2022-10-23T07:41:48.501Z,1013.22
2022-10-23T07:42:48.481Z,1013.22
2022-10-23T07:43:48.496Z,1013.22
2022-10-23T07:44:48.508Z,1013.16
2022-10-23T07:45:48.487Z,1013.15
2022-10-23T07:46:48.467Z,1013.18
2022-10-23T07:47:48.440Z,1013.20
2022-10-23T07:48:48.434Z,1013.22
2022-10-23T07:49:48.470Z,1013.18
2022-10-23T07:50:48.397Z,1013.22
2022-10-23T07:51:51.272Z,1013.27
2022-10-23T07:52:48.451Z,1013.29
2022-10-23T07:53:48.432Z,1013.23
2022-10-23T07:54:48.382Z,1013.23
2022-10-23T07:55:48.362Z,1013.22
2022-10-23T07:56:48.350Z,1013.18
2022-10-23T07:57:48.339Z,1013.18
2022-10-23T07:58:48.353Z,1013.18
2022-10-23T07:59:48.318Z,1013.18
2022-10-23T08:00:48.331Z,1013.16
2022-10-23T08:01:50.543Z,1013.16
2022-10-23T08:02:48.298Z,1013.16
2022-10-23T08:03:48.257Z,1013.19
2022-10-23T08:04:48.253Z,1013.15
2022-10-23T08:05:48.234Z,1013.15
2022-10-23T08:06:48.250Z,1013.10
2022-10-23T08:07:48.218Z,1013.11
2022-10-23T08:08:48.240Z,1013.13
2022-10-23T08:09:48.221Z,1013.10
2022-10-23T08:10:48.184Z,1013.08
2022-10-23T08:11:48.196Z,1013.08
2022-10-23T08:12:48.185Z,1013.16
2022-10-23T08:13:48.148Z,1013.04
2022-10-23T08:14:48.184Z,1013.03
2022-10-23T08:15:48.137Z,1013.06
2022-10-23T08:16:48.113Z,1013.04
2022-10-23T08:17:48.127Z,1013.08
2022-10-23T08:18:48.113Z,1013.12
2022-10-23T08:19:48.096Z,1013.15
2022-10-23T08:20:48.139Z,1013.13
2022-10-23T08:21:48.081Z,1013.14
2022-10-23T08:22:48.072Z,1013.08
2022-10-23T08:23:48.037Z,1013.10
2022-10-23T08:24:48.035Z,1013.16
2022-10-23T08:25:48.027Z,1013.13
2022-10-23T08:26:48.062Z,1013.10
2022-10-23T08:27:50.370Z,1013.15
2022-10-23T08:28:48.022Z,1013.12
2022-10-23T08:29:50.784Z,1013.22
2022-10-23T08:30:48.968Z,1013.24
2022-10-23T08:31:47.952Z,1013.22
2022-10-23T08:32:47.939Z,1013.23
2022-10-23T08:34:47.940Z,1013.16
2022-10-23T08:35:47.911Z,1013.11
2022-10-23T08:36:47.894Z,1013.13
2022-10-23T08:37:47.895Z,1013.12
2022-10-23T08:38:47.881Z,1013.05
2022-10-23T08:39:50.128Z,1013.15
2022-10-23T08:40:47.852Z,1013.14
2022-10-23T08:41:47.865Z,1013.12
2022-10-23T08:42:47.872Z,1013.06
2022-10-23T08:43:47.826Z,1013.10
2022-10-23T08:44:47.817Z,1013.06
2022-10-23T08:45:47.801Z,1013.08
2022-10-23T08:46:47.823Z,1013.03
2022-10-23T08:47:47.808Z,1013.08
2022-10-23T08:48:47.774Z,1013.05
2022-10-23T08:49:47.786Z,1013.11
2022-10-23T08:50:47.782Z,1013.06
2022-10-23T08:51:47.735Z,1013.12
2022-10-23T08:52:47.725Z,1013.15
2022-10-23T08:53:47.777Z,1013.12
2022-10-23T08:54:47.727Z,1013.11
2022-10-23T08:55:47.699Z,1013.07
2022-10-23T08:56:47.700Z,1013.15
2022-10-23T08:57:47.672Z,1013.06
2022-10-23T08:58:47.697Z,1013.12
2022-10-23T08:59:47.675Z,1013.10
2022-10-23T09:00:47.835Z,1013.12
2022-10-23T09:01:47.814Z,1013.26
2022-10-23T09:02:47.641Z,1013.10
2022-10-23T09:03:47.637Z,1013.12
2022-10-23T09:04:47.623Z,1013.08
2022-10-23T09:05:47.587Z,1013.02
2022-10-23T09:06:47.635Z,1013.05
2022-10-23T09:07:47.566Z,1013.07
2022-10-23T09:08:47.595Z,1013.00
2022-10-23T09:09:47.543Z,1013.01
2022-10-23T09:10:50.617Z,1013.07
2022-10-23T09:11:47.628Z,1012.97
2022-10-23T09:12:47.510Z,1013.03
2022-10-23T09:13:47.520Z,1013.03
2022-10-23T09:14:47.519Z,1013.01
2022-10-23T09:15:47.477Z,1013.02
2022-10-23T09:16:47.465Z,1013.06
2022-10-23T09:17:47.497Z,1013.08
2022-10-23T09:18:47.479Z,1013.01
2022-10-23T09:19:47.457Z,1013.00
2022-10-23T09:20:47.429Z,1013.05
2022-10-23T09:21:47.408Z,1012.99
2022-10-23T09:22:47.438Z,1013.02
2022-10-23T09:23:47.422Z,1012.96
2022-10-23T09:24:51.554Z,1012.97
2022-10-23T09:25:48.373Z,1013.01
2022-10-23T09:26:47.372Z,1013.02
2022-10-23T09:27:49.581Z,1013.01
2022-10-23T09:28:47.348Z,1013.01
2022-10-23T09:29:47.321Z,1012.98
2022-10-23T09:30:47.337Z,1012.97
2022-10-23T09:31:47.301Z,1012.98
2022-10-23T09:32:47.288Z,1012.95
2022-10-23T09:33:47.277Z,1012.98
2022-10-23T09:34:47.299Z,1012.99
2022-10-23T09:35:47.285Z,1012.99
2022-10-23T09:36:47.276Z,1012.99
2022-10-23T09:37:47.242Z,1012.98
2022-10-23T09:38:47.245Z,1013.01
2022-10-23T09:39:47.221Z,1013.03
2022-10-23T09:40:47.233Z,1013.04
2022-10-23T09:41:47.302Z,1012.99
2022-10-23T09:42:47.180Z,1013.01
2022-10-23T09:43:47.174Z,1012.99
2022-10-23T09:44:47.158Z,1012.99
2022-10-23T09:45:47.244Z,1013.01
2022-10-23T09:46:47.187Z,1012.97
2022-10-23T09:47:47.129Z,1013.02
2022-10-23T09:48:47.126Z,1013.03
2022-10-23T09:49:47.112Z,1013.02
2022-10-23T09:50:47.114Z,1013.04
2022-10-23T09:51:47.109Z,1013.00
2022-10-23T09:52:47.158Z,1013.00
2022-10-23T09:53:47.062Z,1012.99
2022-10-23T09:54:47.095Z,1013.01
2022-10-23T09:55:47.037Z,1012.91
2022-10-23T09:57:47.453Z,1012.89
2022-10-23T09:58:47.003Z,1012.88
2022-10-23T09:59:47.019Z,1012.92
2022-10-23T10:00:47.056Z,1012.91
2022-10-23T10:01:47.117Z,1012.91
2022-10-23T10:02:46.958Z,1012.97
2022-10-23T10:03:46.961Z,1012.96
2022-10-23T10:04:46.959Z,1013.01
2022-10-23T10:05:46.931Z,1012.97
2022-10-23T10:06:46.919Z,1012.93
2022-10-23T10:07:46.917Z,1012.91
2022-10-23T10:08:46.893Z,1012.89
2022-10-23T10:09:46.913Z,1012.83
2022-10-23T10:10:46.894Z,1012.83
2022-10-23T10:11:46.863Z,1012.82
2022-10-23T10:12:46.852Z,1012.81
2022-10-23T10:13:46.861Z,1012.80
2022-10-23T10:14:46.857Z,1012.89
2022-10-23T10:15:46.862Z,1012.82
2022-10-23T10:16:46.813Z,1012.85
2022-10-23T10:17:46.802Z,1012.88
2022-10-23T10:18:46.796Z,1012.86
2022-10-23T10:19:46.792Z,1012.81
2022-10-23T10:20:46.766Z,1012.85
2022-10-23T10:21:46.763Z,1012.86
2022-10-23T10:22:46.792Z,1012.86
2022-10-23T10:23:46.772Z,1012.88
2022-10-23T10:24:46.768Z,1012.81
2022-10-23T10:25:52.012Z,1012.83
2022-10-23T10:26:47.729Z,1012.78
2022-10-23T10:27:46.882Z,1012.78
2022-10-23T10:28:46.683Z,1012.84
2022-10-23T10:29:46.672Z,1012.78
2022-10-23T10:30:46.729Z,1012.76
2022-10-23T10:31:50.560Z,1012.75
2022-10-23T10:32:47.660Z,1012.67
2022-10-23T10:33:46.628Z,1012.71
2022-10-23T10:34:46.654Z,1012.62
2022-10-23T10:35:46.607Z,1012.63
2022-10-23T10:36:46.616Z,1012.62
2022-10-23T10:37:49.398Z,1012.63
2022-10-23T10:38:46.574Z,1012.57
2022-10-23T10:39:46.559Z,1012.55
2022-10-23T10:40:46.575Z,1012.56
2022-10-23T10:41:46.538Z,1012.50
2022-10-23T10:42:46.570Z,1012.49
2022-10-23T10:43:46.546Z,1012.54
2022-10-23T10:44:46.510Z,1012.49
2022-10-23T10:45:46.539Z,1012.43
2022-10-23T10:46:46.600Z,1012.44
2022-10-23T10:47:46.468Z,1012.44
2022-10-23T10:48:46.473Z,1012.40
2022-10-23T10:49:46.458Z,1012.47
2022-10-23T10:50:46.476Z,1012.46
2022-10-23T10:51:46.439Z,1012.41
2022-10-23T10:52:49.101Z,1012.47
2022-10-23T10:53:46.414Z,1012.46
2022-10-23T10:54:46.430Z,1012.44
2022-10-23T10:55:46.417Z,1012.45
2022-10-23T10:56:46.392Z,1012.49
2022-10-23T10:57:46.709Z,1012.48
2022-10-23T10:58:46.408Z,1012.43
2022-10-23T10:59:46.365Z,1012.44
2022-10-23T11:00:46.382Z,1012.39
2022-10-23T11:01:46.520Z,1012.43
2022-10-23T11:02:46.310Z,1012.46
2022-10-23T11:03:46.306Z,1012.42
2022-10-23T11:04:46.322Z,1012.42
2022-10-23T11:05:46.348Z,1012.42
2022-10-23T11:06:46.277Z,1012.35
2022-10-23T11:07:46.413Z,1012.37
2022-10-23T11:08:57.621Z,1012.28
2022-10-23T11:09:47.265Z,1012.26
2022-10-23T11:10:46.246Z,1012.27
2022-10-23T11:11:46.210Z,1012.27
2022-10-23T11:12:46.223Z,1012.25
2022-10-23T11:13:46.201Z,1012.29
2022-10-23T11:14:46.227Z,1012.30
2022-10-23T11:15:46.269Z,1012.30
2022-10-23T11:16:46.177Z,1012.36
2022-10-23T11:17:46.402Z,1012.24
2022-10-23T11:18:46.168Z,1012.26
2022-10-23T11:19:46.177Z,1012.27
2022-10-23T11:20:46.133Z,1012.22
2022-10-23T11:21:46.115Z,1012.17
2022-10-23T11:22:46.317Z,1012.18
2022-10-23T11:23:46.081Z,1012.10
2022-10-23T11:24:49.090Z,1012.21
2022-10-23T11:25:46.062Z,1012.14
2022-10-23T11:26:46.054Z,1012.15
2022-10-23T11:27:46.333Z,1012.08
2022-10-23T11:28:46.026Z,1012.15
2022-10-23T11:29:46.045Z,1012.08
2022-10-23T11:30:46.064Z,1012.05
2022-10-23T11:31:46.003Z,1012.04
2022-10-23T11:32:45.982Z,1012.02
2022-10-23T11:33:45.976Z,1011.94
2022-10-23T11:34:45.958Z,1011.93
2022-10-23T11:35:45.981Z,1011.97
2022-10-23T11:36:45.961Z,1011.89
2022-10-23T11:37:46.165Z,1011.96
2022-10-23T11:38:45.926Z,1011.87
2022-10-23T11:39:45.905Z,1011.90
2022-10-23T11:40:45.989Z,1011.90
2022-10-23T11:41:45.885Z,1011.86
2022-10-23T11:42:46.247Z,1011.88
2022-10-23T11:43:45.869Z,1011.85
2022-10-23T11:44:45.871Z,1011.88
2022-10-23T11:45:45.847Z,1011.85
2022-10-23T11:46:45.933Z,1011.85
2022-10-23T11:47:45.875Z,1011.82
2022-10-23T11:48:45.808Z,1011.84
2022-10-23T11:49:45.805Z,1011.83
2022-10-23T11:50:45.803Z,1011.82
2022-10-23T11:51:45.799Z,1011.84
2022-10-23T11:52:56.195Z,1011.74
2022-10-23T11:53:46.758Z,1011.76
2022-10-23T11:54:45.746Z,1011.72
2022-10-23T11:55:45.747Z,1011.74
2022-10-23T11:56:45.762Z,1011.71
2022-10-23T11:57:45.739Z,1011.61
2022-10-23T11:58:45.711Z,1011.64
2022-10-23T11:59:45.717Z,1011.60
2022-10-23T12:00:45.740Z,1011.58
2022-10-23T12:01:45.892Z,1011.57
2022-10-23T12:02:46.029Z,1011.52
2022-10-23T12:03:45.679Z,1011.49
2022-10-23T12:04:45.662Z,1011.53
2022-10-23T12:05:45.785Z,1011.51
2022-10-23T12:06:45.627Z,1011.44
2022-10-23T12:07:46.038Z,1011.48